Time;durP1;ratioP1;P1;durP2;ratioP2;P2;SDS_P1;SDS_P2;PMS_P1;PMS_P2;Temp;Humidity;BMP_temperature;BMP_pressure;BME280_temperature;BME280_humidity;BME280_pressure;Samples;Min_cycle;Max_cycle;Signal;HPM_P1;HPM_P2
2023/03/18 00:00:17;;;;;;;10.20;5.18;;;12.40;99.90;;;;;;5030775;28;20090;-76
2023/03/18 00:02:44;;;;;;;10.10;5.80;;;12.40;99.90;;;;;;5015787;28;20505;-76
2023/03/18 00:05:11;;;;;;;11.50;5.45;;;12.30;99.90;;;;;;5037338;28;20566;-76
2023/03/18 00:07:38;;;;;;;7.85;5.13;;;12.70;99.90;;;;;;5044847;28;20083;-76
2023/03/18 00:10:05;;;;;;;8.43;5.45;;;13.00;99.90;;;;;;5018256;28;20072;-76
2023/03/18 00:12:32;;;;;;;11.75;5.60;;;12.30;99.90;;;;;;5019003;28;20053;-77
2023/03/18 00:14:58;;;;;;;9.77;5.97;;;12.30;99.90;;;;;;5049681;28;20037;-76
2023/03/18 00:17:24;;;;;;;10.90;5.85;;;12.30;99.90;;;;;;5033427;28;20080;-76
2023/03/18 00:19:50;;;;;;;10.60;6.15;;;12.80;99.90;;;;;;5020431;28;20024;-76
2023/03/18 00:22:16;;;;;;;11.85;6.50;;;12.30;99.90;;;;;;5041046;28;20040;-76
2023/03/18 00:24:42;;;;;;;11.27;6.82;;;12.60;99.90;;;;;;5034999;28;20045;-76
2023/03/18 00:27:08;;;;;;;9.85;6.13;;;12.20;99.90;;;;;;5051173;28;20068;-76
2023/03/18 00:29:34;;;;;;;9.98;6.57;;;12.20;99.90;;;;;;5034420;28;20040;-76
2023/03/18 00:32:00;;;;;;;10.25;6.60;;;12.20;99.90;;;;;;5053628;28;20041;-76
2023/03/18 00:34:25;;;;;;;13.10;7.07;;;12.20;99.90;;;;;;5030220;28;20382;-76
2023/03/18 00:36:55;;;;;;;11.18;7.43;;;12.20;99.90;;;;;;5047536;28;20042;-77
2023/03/18 00:39:25;;;;;;;11.93;7.10;;;12.20;99.90;;;;;;5028125;28;20068;-77
2023/03/18 00:41:55;;;;;;;10.80;7.63;;;12.10;99.90;;;;;;5038588;28;20556;-76
2023/03/18 00:44:21;;;;;;;11.32;7.40;;;12.10;99.90;;;;;;5042643;28;20504;-76
2023/03/18 00:46:47;;;;;;;11.40;7.28;;;12.10;99.90;;;;;;5033801;28;20511;-76
2023/03/18 00:49:14;;;;;;;13.85;7.50;;;11.30;99.90;;;;;;5024774;28;20044;-76
2023/03/18 00:51:40;;;;;;;12.23;7.25;;;12.00;99.90;;;;;;5031615;28;20124;-76
2023/03/18 00:54:09;;;;;;;12.85;7.82;;;12.00;99.90;;;;;;5057314;28;20377;-76
2023/03/18 00:56:38;;;;;;;13.05;7.85;;;11.90;99.90;;;;;;5030606;28;20037;-76
2023/03/18 00:59:05;;;;;;;15.65;6.97;;;11.90;99.90;;;;;;5038490;28;20041;-76
2023/03/18 01:01:31;;;;;;;13.23;7.22;;;11.80;99.90;;;;;;5020842;28;20056;-76
2023/03/18 01:03:57;;;;;;;12.68;7.32;;;11.70;99.90;;;;;;5051973;28;20036;-76
2023/03/18 01:06:27;;;;;;;13.90;7.40;;;12.40;99.90;;;;;;5015670;28;20495;-76
2023/03/18 01:08:54;;;;;;;11.70;7.57;;;11.60;99.90;;;;;;5033049;28;20048;-77
2023/03/18 01:11:20;;;;;;;11.80;6.93;;;11.60;99.90;;;;;;5034377;28;20117;-77
2023/03/18 01:13:46;;;;;;;10.18;6.85;;;11.50;99.90;;;;;;5032597;28;20036;-77
2023/03/18 01:16:13;;;;;;;13.45;6.90;;;11.50;99.90;;;;;;5030427;28;20032;-76
2023/03/18 01:18:40;;;;;;;14.23;8.02;;;11.40;99.90;;;;;;5044133;28;20033;-76
2023/03/18 01:21:06;;;;;;;12.55;8.02;;;11.40;99.90;;;;;;5040442;28;20119;-77
2023/03/18 01:23:31;;;;;;;16.75;8.65;;;11.40;99.90;;;;;;5051298;28;20499;-76
2023/03/18 01:25:58;;;;;;;14.30;8.90;;;12.30;99.90;;;;;;5025883;28;20064;-76
2023/03/18 01:28:26;;;;;;;16.63;9.38;;;11.40;99.90;;;;;;5043071;28;20090;-76
2023/03/18 01:30:52;;;;;;;16.27;9.43;;;11.30;99.90;;;;;;5028576;28;20428;-76
2023/03/18 01:33:18;;;;;;;13.77;9.40;;;11.30;99.90;;;;;;5027481;28;20051;-76
2023/03/18 01:35:46;;;;;;;16.30;9.43;;;11.30;99.90;;;;;;5029639;28;20091;-76
2023/03/18 01:38:12;;;;;;;14.90;9.05;;;11.30;99.90;;;;;;5031857;28;20040;-76
2023/03/18 01:40:41;;;;;;;18.63;10.10;;;11.90;99.90;;;;;;5044978;28;20041;-77
2023/03/18 01:43:11;;;;;;;17.23;9.88;;;11.20;99.90;;;;;;5033439;28;20120;-77
2023/03/18 01:45:37;;;;;;;18.40;10.50;;;11.10;99.90;;;;;;5028501;28;20037;-77
2023/03/18 01:48:03;;;;;;;15.57;9.50;;;11.10;99.90;;;;;;5028904;28;20146;-77
2023/03/18 01:50:32;;;;;;;17.00;9.70;;;11.10;99.90;;;;;;5005117;28;20056;-77
2023/03/18 01:53:03;;;;;;;17.67;10.52;;;11.10;99.90;;;;;;5048511;28;20120;-77
2023/03/18 01:55:30;;;;;;;16.95;10.15;;;11.00;99.90;;;;;;5045899;28;20382;-76
2023/03/18 01:57:57;;;;;;;16.98;9.95;;;11.00;99.90;;;;;;5019108;28;20045;-76
2023/03/18 02:00:23;;;;;;;19.50;11.30;;;11.00;99.90;;;;;;5013083;28;20033;-75
2023/03/18 02:02:51;;;;;;;17.52;11.68;;;11.00;99.90;;;;;;5024137;28;20052;-76
2023/03/18 02:05:21;;;;;;;19.67;11.93;;;10.90;99.90;;;;;;5029246;28;20465;-76
2023/03/18 02:07:47;;;;;;;19.92;11.10;;;10.90;99.90;;;;;;5038377;28;20047;-76
2023/03/18 02:10:25;;;;;;;19.00;12.00;;;10.90;99.90;;;;;;5040917;28;20488;-76
2023/03/18 02:12:59;;;;;;;18.90;12.05;;;10.80;99.90;;;;;;5045405;28;20041;-76
2023/03/18 02:15:26;;;;;;;21.67;13.00;;;10.80;99.90;;;;;;5036552;28;20032;-76
2023/03/18 02:18:05;;;;;;;21.38;13.15;;;10.80;99.90;;;;;;5051447;28;20033;-76
2023/03/18 02:20:43;;;;;;;19.23;13.38;;;10.80;99.90;;;;;;5015671;28;20382;-76
2023/03/18 02:23:36;;;;;;;19.90;12.90;;;10.80;99.90;;;;;;5036964;28;20062;-76
2023/03/18 02:26:19;;;;;;;;;;;10.80;99.90;;;;;;5034280;28;20585;-76
2023/03/18 02:28:48;;;;;;;19.67;13.10;;;10.80;99.90;;;;;;5012874;28;19936;-76
2023/03/18 02:31:15;;;;;;;20.90;12.30;;;10.80;99.90;;;;;;5037054;28;20048;-76
2023/03/18 02:33:42;;;;;;;25.23;14.85;;;10.80;99.90;;;;;;5036889;28;20029;-76
2023/03/18 02:36:14;;;;;;;22.55;14.75;;;10.80;99.90;;;;;;5012760;28;20052;-76
2023/03/18 02:38:41;;;;;;;25.13;14.75;;;10.80;99.90;;;;;;5043787;28;20477;-76
2023/03/18 02:41:19;;;;;;;20.48;14.65;;;10.80;99.90;;;;;;5054651;28;20040;-77
2023/03/18 02:43:46;;;;;;;20.70;14.27;;;10.80;99.90;;;;;;5035399;28;20052;-76
2023/03/18 02:46:34;;;;;;;24.45;15.80;;;10.80;99.90;;;;;;5035265;28;20111;-76
2023/03/18 02:49:01;;;;;;;26.95;16.02;;;10.80;99.90;;;;;;5036395;28;20463;-77
2023/03/18 02:51:27;;;;;;;25.40;15.68;;;10.70;99.90;;;;;;5021775;28;20033;-77
2023/03/18 02:54:01;;;;;;;21.58;15.45;;;10.70;99.90;;;;;;5036924;28;20583;-77
2023/03/18 02:56:27;;;;;;;26.42;16.23;;;10.70;99.90;;;;;;5051252;28;20033;-77
2023/03/18 02:58:52;;;;;;;22.33;15.85;;;10.90;99.90;;;;;;5021938;28;20516;-76
2023/03/18 03:01:18;;;;;;;24.10;16.00;;;10.70;99.90;;;;;;5047737;28;20044;-77
2023/03/18 03:03:44;;;;;;;26.42;16.60;;;10.70;99.90;;;;;;5016198;28;20036;-76
2023/03/18 03:06:10;;;;;;;23.50;16.38;;;10.70;99.90;;;;;;5033912;28;20460;-77
2023/03/18 03:08:36;;;;;;;24.67;16.90;;;10.70;99.90;;;;;;5031301;28;20045;-77
2023/03/18 03:11:01;;;;;;;25.65;17.40;;;10.70;99.90;;;;;;5039638;28;20037;-77
2023/03/18 03:13:28;;;;;;;25.83;17.27;;;10.70;99.90;;;;;;5049243;28;20098;-77
2023/03/18 03:15:54;;;;;;;24.92;17.42;;;10.70;99.90;;;;;;5033104;28;20041;-77
2023/03/18 03:18:20;;;;;;;26.40;17.15;;;10.60;99.90;;;;;;5021649;28;20094;-77
2023/03/18 03:20:46;;;;;;;26.33;17.88;;;10.60;99.90;;;;;;5043926;28;20369;-77
2023/03/18 03:23:14;;;;;;;23.83;18.35;;;10.60;99.90;;;;;;5018563;28;20041;-77
2023/03/18 03:25:40;;;;;;;27.23;17.73;;;10.60;99.90;;;;;;5053620;28;20078;-77
2023/03/18 03:28:07;;;;;;;27.00;18.20;;;10.60;99.90;;;;;;5037418;28;20412;-77
2023/03/18 03:30:34;;;;;;;27.98;19.33;;;10.60;99.90;;;;;;5036113;28;20123;-77
2023/03/18 03:33:00;;;;;;;27.95;19.23;;;10.70;99.90;;;;;;5041568;28;20037;-77
2023/03/18 03:35:26;;;;;;;26.77;18.85;;;10.70;99.90;;;;;;5032004;28;20041;-77
2023/03/18 03:37:52;;;;;;;27.85;18.63;;;10.70;99.90;;;;;;5019173;28;20033;-77
2023/03/18 03:40:19;;;;;;;24.92;18.35;;;10.70;99.90;;;;;;5023435;28;20087;-77
2023/03/18 03:42:46;;;;;;;27.60;18.33;;;10.70;99.90;;;;;;5022255;28;20128;-77
2023/03/18 03:45:13;;;;;;;27.60;18.30;;;11.60;99.90;;;;;;5059799;28;20045;-77
2023/03/18 03:47:40;;;;;;;25.90;18.20;;;10.60;99.90;;;;;;5048722;28;20033;-77
2023/03/18 03:50:06;;;;;;;26.45;18.45;;;10.70;99.90;;;;;;5016021;28;20207;-77
2023/03/18 03:52:32;;;;;;;26.80;18.85;;;10.70;99.90;;;;;;5052969;28;20497;-77
2023/03/18 03:54:59;;;;;;;26.52;17.75;;;10.70;99.90;;;;;;5016364;28;20029;-77
2023/03/18 03:57:25;;;;;;;28.67;18.95;;;10.70;99.90;;;;;;5040522;28;20040;-77
2023/03/18 03:59:52;;;;;;;26.20;18.73;;;10.70;99.90;;;;;;5040073;28;20042;-76
2023/03/18 04:02:18;;;;;;;26.02;19.08;;;10.70;99.90;;;;;;5032594;28;20045;-76
2023/03/18 04:04:45;;;;;;;26.13;18.05;;;10.60;99.90;;;;;;5035257;28;20382;-77
2023/03/18 04:07:11;;;;;;;27.95;18.98;;;10.70;99.90;;;;;;5045529;28;20041;-76
2023/03/18 04:09:37;;;;;;;26.52;18.70;;;10.70;99.90;;;;;;5050625;28;20040;-76
2023/03/18 04:12:03;;;;;;;28.13;17.63;;;10.60;99.90;;;;;;5049963;28;20120;-76
2023/03/18 04:14:28;;;;;;;27.40;18.02;;;10.70;99.90;;;;;;5035687;28;20099;-76
2023/03/18 04:16:59;;;;;;;24.60;16.10;;;10.60;99.90;;;;;;5042783;28;20033;-76
2023/03/18 04:19:26;;;;;;;24.27;16.23;;;10.60;99.90;;;;;;5016328;28;20116;-76
2023/03/18 04:21:52;;;;;;;23.45;16.00;;;11.00;99.90;;;;;;5039269;28;20041;-76
2023/03/18 04:24:19;;;;;;;25.17;15.32;;;10.60;99.90;;;;;;5032352;28;20045;-77
2023/03/18 04:26:44;;;;;;;25.70;15.82;;;10.60;99.90;;;;;;5054982;28;20036;-77
2023/03/18 04:29:10;;;;;;;24.50;15.15;;;10.60;99.90;;;;;;5050952;28;20404;-77
2023/03/18 04:31:36;;;;;;;20.75;14.57;;;10.60;99.90;;;;;;5028342;28;20043;-77
2023/03/18 04:34:01;;;;;;;21.85;14.68;;;10.60;99.90;;;;;;5034282;28;20033;-77
2023/03/18 04:36:27;;;;;;;21.38;15.48;;;10.60;99.90;;;;;;5016689;28;20123;-77
2023/03/18 04:38:53;;;;;;;22.23;14.90;;;10.60;99.90;;;;;;5021876;28;20040;-76
2023/03/18 04:41:19;;;;;;;22.17;14.75;;;10.60;99.90;;;;;;5027105;28;20049;-76
2023/03/18 04:43:45;;;;;;;20.80;13.70;;;10.50;99.90;;;;;;5036535;28;20405;-77
2023/03/18 04:46:14;;;;;;;20.83;13.90;;;10.50;99.90;;;;;;5018008;28;20037;-77
2023/03/18 04:48:40;;;;;;;22.42;14.18;;;10.50;99.90;;;;;;5026461;28;20102;-77
2023/03/18 04:51:08;;;;;;;23.17;14.10;;;11.00;99.90;;;;;;5032929;28;20052;-77
2023/03/18 04:53:35;;;;;;;19.60;13.20;;;10.50;99.90;;;;;;5032758;28;20051;-77
2023/03/18 04:56:01;;;;;;;24.70;14.05;;;10.50;99.90;;;;;;5023881;28;20047;-77
2023/03/18 04:58:27;;;;;;;22.02;13.98;;;10.50;99.90;;;;;;5038978;28;20040;-77
2023/03/18 05:00:52;;;;;;;20.40;14.10;;;10.40;99.90;;;;;;5019386;28;20047;-77
2023/03/18 05:03:18;;;;;;;20.77;13.95;;;10.40;99.90;;;;;;5024173;28;20045;-77
2023/03/18 05:05:43;;;;;;;20.75;14.05;;;10.40;99.90;;;;;;5035877;28;20099;-77
2023/03/18 05:08:09;;;;;;;22.00;14.77;;;10.40;99.90;;;;;;5033593;28;20093;-77
2023/03/18 05:10:35;;;;;;;20.05;14.43;;;10.40;99.90;;;;;;5029935;28;20037;-77
2023/03/18 05:13:01;;;;;;;21.83;14.43;;;10.40;99.90;;;;;;5031178;28;20040;-77
2023/03/18 05:15:26;;;;;;;21.73;14.90;;;10.40;99.90;;;;;;5022980;28;20648;-77
2023/03/18 05:17:52;;;;;;;23.95;15.65;;;10.40;99.90;;;;;;5018304;28;20040;-77
2023/03/18 05:20:18;;;;;;;18.83;14.38;;;10.40;99.90;;;;;;5051810;28;20410;-77
2023/03/18 05:22:44;;;;;;;21.75;14.65;;;10.40;99.90;;;;;;5017859;28;20400;-77
2023/03/18 05:25:10;;;;;;;24.77;14.80;;;10.40;99.90;;;;;;5034078;28;20144;-77
2023/03/18 05:27:36;;;;;;;21.50;14.32;;;10.40;99.90;;;;;;5037101;28;20067;-77
2023/03/18 05:30:04;;;;;;;26.35;15.82;;;10.50;99.90;;;;;;5033439;28;20064;-77
2023/03/18 05:32:31;;;;;;;22.80;15.15;;;10.50;99.90;;;;;;5022252;28;20052;-77
2023/03/18 05:34:56;;;;;;;23.38;14.88;;;10.50;99.90;;;;;;5051015;28;20048;-77
2023/03/18 05:37:23;;;;;;;20.40;14.25;;;10.50;99.90;;;;;;5049994;28;20098;-76
2023/03/18 05:39:49;;;;;;;21.02;14.55;;;10.50;99.90;;;;;;5047343;28;20028;-77
2023/03/18 05:42:15;;;;;;;22.20;14.45;;;10.50;99.90;;;;;;5026579;28;20434;-76
2023/03/18 05:44:41;;;;;;;21.88;14.95;;;10.70;99.90;;;;;;5009070;28;20040;-76
2023/03/18 05:47:09;;;;;;;21.90;14.50;;;11.20;99.90;;;;;;5031716;28;20107;-76
2023/03/18 05:49:36;;;;;;;22.13;14.65;;;10.60;99.90;;;;;;5038872;28;20496;-76
2023/03/18 05:52:02;;;;;;;19.20;14.52;;;11.00;99.90;;;;;;5053362;28;20112;-76
2023/03/18 05:54:28;;;;;;;22.63;14.98;;;10.50;99.90;;;;;;5016845;28;20036;-76
2023/03/18 05:56:53;;;;;;;25.58;14.43;;;10.60;99.90;;;;;;5049628;28;20086;-76
2023/03/18 05:59:21;;;;;;;21.83;14.25;;;10.60;99.90;;;;;;5032994;28;20072;-76
2023/03/18 06:01:47;;;;;;;20.85;14.82;;;10.50;99.90;;;;;;5020070;28;20080;-76
2023/03/18 06:04:16;;;;;;;21.70;14.63;;;10.50;99.90;;;;;;5016502;28;20128;-76
2023/03/18 06:06:42;;;;;;;22.52;14.43;;;10.50;99.90;;;;;;5034706;28;20045;-76
2023/03/18 06:09:09;;;;;;;20.63;14.27;;;10.50;99.90;;;;;;5034946;28;20053;-76
2023/03/18 06:11:35;;;;;;;23.33;15.10;;;10.50;99.90;;;;;;5024776;28;20045;-76
2023/03/18 06:14:02;;;;;;;22.83;15.18;;;10.50;99.90;;;;;;5041339;28;20100;-76
2023/03/18 06:16:27;;;;;;;25.05;15.27;;;10.50;99.90;;;;;;5042146;28;20047;-77
2023/03/18 06:18:56;;;;;;;19.95;15.23;;;10.40;99.90;;;;;;5041883;28;20081;-76
2023/03/18 06:21:22;;;;;;;24.85;15.43;;;10.50;99.90;;;;;;5031466;28;20037;-76
2023/03/18 06:23:48;;;;;;;25.95;15.75;;;10.40;99.90;;;;;;5044581;28;20083;-75
2023/03/18 06:26:14;;;;;;;20.80;14.40;;;10.40;99.90;;;;;;5022541;28;20040;-77
2023/03/18 06:28:40;;;;;;;24.40;15.02;;;10.40;99.90;;;;;;5022549;28;20128;-76
2023/03/18 06:31:06;;;;;;;24.00;15.13;;;10.40;99.90;;;;;;5024463;28;20049;-76
2023/03/18 06:33:31;;;;;;;20.52;14.45;;;10.40;99.90;;;;;;5024646;28;20459;-76
2023/03/18 06:35:59;;;;;;;21.70;14.85;;;10.40;99.90;;;;;;5007321;28;20037;-76
2023/03/18 06:38:26;;;;;;;21.75;14.93;;;10.40;99.90;;;;;;5031994;28;20041;-76
2023/03/18 06:40:52;;;;;;;29.15;14.40;;;10.40;99.90;;;;;;5040698;28;20078;-77
2023/03/18 06:43:17;;;;;;;22.92;14.48;;;10.40;99.90;;;;;;5048214;28;20041;-75
2023/03/18 06:45:43;;;;;;;24.50;13.98;;;10.50;99.90;;;;;;5045825;28;20481;-77
2023/03/18 06:48:09;;;;;;;26.63;14.63;;;10.60;99.90;;;;;;5008065;28;20086;-76
2023/03/18 06:50:38;;;;;;;22.65;13.77;;;10.40;99.90;;;;;;5025308;28;20159;-77
2023/03/18 06:53:04;;;;;;;22.33;14.77;;;10.50;99.90;;;;;;5051085;28;20075;-77
2023/03/18 06:55:30;;;;;;;20.17;13.90;;;10.50;99.90;;;;;;5035432;28;20040;-77
2023/03/18 06:57:56;;;;;;;20.40;13.88;;;10.50;99.90;;;;;;5036760;28;20408;-77
2023/03/18 07:00:23;;;;;;;17.92;13.32;;;10.50;99.90;;;;;;5046449;28;20275;-76
2023/03/18 07:02:49;;;;;;;20.60;13.73;;;10.50;99.90;;;;;;5020372;28;20049;-76
2023/03/18 07:05:15;;;;;;;22.10;14.60;;;10.50;99.90;;;;;;5016162;28;20557;-76
2023/03/18 07:07:42;;;;;;;24.80;14.63;;;10.50;99.90;;;;;;5026333;28;20041;-77
2023/03/18 07:10:19;;;;;;;24.80;15.18;;;10.50;99.90;;;;;;5019478;28;20483;-76
2023/03/18 07:12:46;;;;;;;22.90;14.77;;;10.50;99.90;;;;;;5035448;28;20040;-76
2023/03/18 07:15:12;;;;;;;26.25;16.85;;;10.50;99.90;;;;;;5050592;28;20045;-77
2023/03/18 07:17:38;;;;;;;25.02;16.85;;;10.40;99.90;;;;;;5055208;28;20120;-77
2023/03/18 07:20:06;;;;;;;26.75;15.73;;;10.40;99.90;;;;;;5023320;28;20030;-77
2023/03/18 07:22:31;;;;;;;26.27;15.90;;;10.40;99.90;;;;;;5050873;28;20044;-77
2023/03/18 07:24:57;;;;;;;25.90;15.68;;;10.40;99.90;;;;;;5021174;28;20401;-76
2023/03/18 07:27:22;;;;;;;23.27;16.75;;;10.40;99.90;;;;;;5047870;28;20469;-76
2023/03/18 07:29:48;;;;;;;25.13;15.43;;;10.30;99.90;;;;;;5023959;28;20386;-76
2023/03/18 07:32:14;;;;;;;25.30;16.73;;;10.30;99.90;;;;;;5029943;28;20069;-77
2023/03/18 07:34:40;;;;;;;27.33;15.52;;;9.80;99.90;;;;;;5037117;28;20043;-76
2023/03/18 07:37:05;;;;;;;23.58;16.85;;;10.40;99.90;;;;;;5032337;28;20029;-77
2023/03/18 07:39:32;;;;;;;26.48;16.30;;;10.30;99.90;;;;;;5036538;28;20116;-77
2023/03/18 07:41:58;;;;;;;27.88;16.63;;;10.40;99.90;;;;;;5012374;28;20040;-77
2023/03/18 07:44:25;;;;;;;28.10;16.33;;;10.40;99.90;;;;;;5025070;28;20040;-78
2023/03/18 07:46:51;;;;;;;22.65;15.73;;;10.40;99.90;;;;;;5029067;28;20121;-79
2023/03/18 07:49:16;;;;;;;25.08;15.63;;;11.10;99.90;;;;;;5008967;28;20120;-76
2023/03/18 07:51:42;;;;;;;26.02;15.93;;;10.50;99.90;;;;;;5043399;28;20041;-77
2023/03/18 07:54:08;;;;;;;24.10;15.80;;;10.60;99.90;;;;;;5047091;28;20044;-78
2023/03/18 07:56:33;;;;;;;21.77;15.65;;;10.60;99.90;;;;;;5025096;28;20032;-78
2023/03/18 07:58:59;;;;;;;25.58;15.57;;;10.70;99.90;;;;;;5023632;28;20049;-78
2023/03/18 08:01:26;;;;;;;24.50;15.93;;;10.70;99.90;;;;;;5029590;28;20059;-78
2023/03/18 08:03:52;;;;;;;20.83;15.40;;;10.80;99.90;;;;;;5025498;28;20039;-78
2023/03/18 08:06:18;;;;;;;25.05;16.23;;;11.50;99.90;;;;;;5050231;28;20040;-78
2023/03/18 08:08:44;;;;;;;26.05;16.77;;;10.80;99.90;;;;;;5008088;28;20033;-77
2023/03/18 08:11:10;;;;;;;25.50;15.50;;;11.50;99.90;;;;;;5029245;28;20572;-78
2023/03/18 08:13:37;;;;;;;23.23;16.17;;;10.90;99.90;;;;;;5026500;28;20045;-76
2023/03/18 08:16:03;;;;;;;25.05;16.75;;;10.90;99.90;;;;;;5032495;28;20033;-78
2023/03/18 08:18:29;;;;;;;23.50;15.68;;;11.00;99.90;;;;;;5032540;28;20037;-79
2023/03/18 08:20:55;;;;;;;26.15;15.98;;;11.70;99.90;;;;;;5037953;28;20040;-77
2023/03/18 08:23:22;;;;;;;29.48;17.35;;;11.00;99.90;;;;;;5023901;28;20100;-77
2023/03/18 08:25:48;;;;;;;26.98;16.52;;;11.00;99.90;;;;;;5046160;28;20105;-78
2023/03/18 08:28:14;;;;;;;24.63;17.10;;;11.00;99.90;;;;;;5040301;28;20405;-77
2023/03/18 08:30:40;;;;;;;26.92;16.48;;;11.10;99.90;;;;;;5043630;28;20136;-77
2023/03/18 08:33:06;;;;;;;29.40;17.90;;;11.40;99.90;;;;;;5024785;28;20132;-77
2023/03/18 08:35:33;;;;;;;26.02;18.33;;;11.20;99.90;;;;;;5027886;28;20379;-77
2023/03/18 08:37:59;;;;;;;24.95;17.23;;;11.30;99.90;;;;;;5013272;28;20538;-78
2023/03/18 08:40:25;;;;;;;28.52;19.23;;;11.40;99.90;;;;;;5039724;28;20552;-78
2023/03/18 08:42:52;;;;;;;28.60;18.67;;;11.40;99.90;;;;;;5044121;28;20113;-77
2023/03/18 08:45:18;;;;;;;30.52;18.90;;;12.10;99.90;;;;;;5045600;28;20440;-78
2023/03/18 08:47:43;;;;;;;30.73;18.98;;;12.60;99.90;;;;;;5028941;28;20094;-77
2023/03/18 08:50:10;;;;;;;29.45;19.15;;;12.30;99.90;;;;;;5007626;28;20045;-77
2023/03/18 08:52:37;;;;;;;27.67;19.25;;;11.80;99.90;;;;;;5047986;28;20067;-77
2023/03/18 08:55:04;;;;;;;28.95;19.60;;;11.90;99.90;;;;;;5017991;28;20401;-77
2023/03/18 08:57:30;;;;;;;30.75;19.65;;;12.00;99.90;;;;;;5044910;28;20048;-79
2023/03/18 08:59:56;;;;;;;28.20;19.48;;;12.30;99.90;;;;;;5027834;28;20150;-79
2023/03/18 09:02:22;;;;;;;27.90;18.27;;;12.20;99.90;;;;;;5049046;28;20114;-79
2023/03/18 09:04:49;;;;;;;26.55;18.10;;;12.20;99.90;;;;;;5052783;22;20044;-64
2023/03/18 09:07:14;;;;;;;30.40;19.02;;;12.20;99.90;;;;;;5069226;28;20040;-64
2023/03/18 09:09:40;;;;;;;29.73;20.35;;;12.20;99.90;;;;;;5090754;28;20039;-64
2023/03/18 09:12:06;;;;;;;31.17;20.02;;;12.20;99.90;;;;;;5088954;28;20095;-64
2023/03/18 09:14:33;;;;;;;31.80;20.15;;;12.30;99.90;;;;;;5071443;28;20040;-64
2023/03/18 09:16:59;;;;;;;33.40;21.17;;;12.30;99.90;;;;;;5072405;28;20036;-64
2023/03/18 09:19:26;;;;;;;31.15;21.27;;;12.40;99.90;;;;;;5072573;28;20036;-65
2023/03/18 09:21:51;;;;;;;30.85;19.88;;;12.40;99.90;;;;;;5086724;28;20071;-65
2023/03/18 09:24:17;;;;;;;30.85;20.77;;;12.40;99.90;;;;;;5068032;28;20068;-65
2023/03/18 09:26:43;;;;;;;29.30;19.98;;;12.40;99.90;;;;;;5090198;28;20427;-65
2023/03/18 09:29:09;;;;;;;29.75;21.05;;;12.50;99.90;;;;;;5090102;28;20036;-65
2023/03/18 09:31:36;;;;;;;26.98;20.10;;;12.50;99.90;;;;;;5065258;28;20457;-62
2023/03/18 09:34:02;;;;;;;28.10;19.90;;;12.50;99.90;;;;;;5066934;28;20051;-61
2023/03/18 09:36:28;;;;;;;28.95;19.90;;;12.60;99.90;;;;;;5067620;28;20055;-62
2023/03/18 09:38:53;;;;;;;30.05;20.95;;;12.70;99.90;;;;;;5084557;28;20028;-62
2023/03/18 09:41:42;;;;;;;24.90;18.80;;;12.70;99.90;;;;;;5086069;28;20040;-62
2023/03/18 09:44:20;;;;;;;27.05;19.33;;;12.90;99.90;;;;;;5085506;28;20047;-62
2023/03/18 09:46:57;;;;;;;27.77;18.70;;;13.00;99.90;;;;;;5084356;28;20751;-63
2023/03/18 09:49:23;;;;;;;23.48;18.08;;;13.10;99.90;;;;;;5087189;28;20124;-61
2023/03/18 09:52:06;;;;;;;23.08;17.08;;;13.10;99.90;;;;;;5086868;28;20627;-62
2023/03/18 09:54:39;;;;;;;24.00;16.63;;;13.20;99.90;;;;;;5068161;28;20047;-62
2023/03/18 09:57:15;;;;;;;21.98;17.05;;;13.30;99.90;;;;;;5076889;28;20494;-62
2023/03/18 09:59:53;;;;;;;22.02;17.98;;;13.30;99.90;;;;;;5085747;28;20031;-62
2023/03/18 10:02:46;;;;;;;21.08;16.67;;;13.40;99.90;;;;;;5089578;28;20410;-63
2023/03/18 10:05:18;;;;;;;19.17;15.90;;;13.30;99.90;;;;;;5084112;28;20040;-63
2023/03/18 10:07:48;;;;;;;20.48;16.23;;;13.30;99.90;;;;;;5077845;28;20394;-61
2023/03/18 10:10:21;;;;;;;20.95;15.25;;;13.30;99.90;;;;;;5085189;28;20123;-63
2023/03/18 10:13:09;;;;;;;;;;;13.50;99.90;;;;;;5085687;28;20082;-63
2023/03/18 10:15:44;;;;;;;21.02;14.68;;;13.70;99.90;;;;;;5066869;28;19915;-61
2023/03/18 10:18:09;;;;;;;18.25;14.63;;;13.90;99.90;;;;;;5083844;28;20040;-63
2023/03/18 10:20:55;;;;;;;18.92;14.35;;;14.10;99.90;;;;;;5070272;28;20105;-62
2023/03/18 10:23:43;;;;;;;17.52;12.82;;;14.20;99.90;;;;;;5072117;28;20048;-63
2023/03/18 10:26:19;;;;;;;16.35;12.35;;;14.20;99.90;;;;;;5083209;28;20036;-63
2023/03/18 10:29:12;;;;;;;21.60;13.27;;;14.10;99.90;;;;;;5065048;28;20043;-63
2023/03/18 10:31:38;;;;;;;;;;;14.10;99.90;;;;;;5064210;28;20121;-63
2023/03/18 10:34:20;;;;;;;17.35;12.65;;;14.00;99.90;;;;;;5083215;28;19924;-63
2023/03/18 10:37:00;;;;;;;17.88;12.55;;;13.90;99.90;;;;;;5073930;28;20530;-64
2023/03/18 10:39:27;;;;;;;15.98;12.95;;;13.90;99.90;;;;;;5086174;28;20032;-63
2023/03/18 10:41:57;;;;;;;18.77;14.10;;;13.90;99.90;;;;;;5092870;28;20405;-63
2023/03/18 10:44:35;;;;;;;20.83;14.35;;;13.80;99.90;;;;;;5091947;28;20600;-63
2023/03/18 10:47:07;;;;;;;18.42;14.15;;;13.70;99.90;;;;;;5092082;28;20102;-63
2023/03/18 10:49:39;;;;;;;17.50;13.93;;;13.70;99.90;;;;;;5083453;28;20036;-61
2023/03/18 10:52:20;;;;;;;;;;;13.80;99.90;;;;;;5074937;28;20312;-62
2023/03/18 10:54:49;;;;;;;15.00;11.43;;;13.80;99.90;;;;;;5092452;28;19916;-63
2023/03/18 10:57:16;;;;;;;14.23;9.52;;;13.70;99.90;;;;;;5091420;28;20044;-61
2023/03/18 10:59:46;;;;;;;14.98;10.90;;;13.70;99.90;;;;;;5092600;28;20035;-63
2023/03/18 11:02:21;;;;;;;15.95;10.65;;;13.70;99.90;;;;;;5093016;28;20405;-64
2023/03/18 11:04:51;;;;;;;16.42;11.93;;;13.60;99.90;;;;;;5072900;28;20542;-64
2023/03/18 11:07:24;;;;;;;17.13;12.13;;;13.70;99.90;;;;;;5074166;28;20048;-62
2023/03/18 11:09:50;;;;;;;15.45;12.32;;;13.80;99.90;;;;;;5088264;28;20404;-63
2023/03/18 11:12:24;;;;;;;18.77;13.05;;;14.00;99.90;;;;;;5083021;28;20047;-63
2023/03/18 11:14:50;;;;;;;14.15;12.18;;;14.10;99.90;;;;;;5081249;28;20411;-63
2023/03/18 11:17:21;;;;;;;16.23;11.98;;;14.20;99.90;;;;;;5089574;28;20097;-63
2023/03/18 11:20:07;;;;;;;16.70;11.75;;;14.10;99.90;;;;;;5072009;28;20064;-64
2023/03/18 11:22:35;;;;;;;17.15;12.38;;;14.00;99.90;;;;;;5053902;28;20526;-64
2023/03/18 11:25:15;;;;;;;17.33;11.40;;;14.00;99.90;;;;;;5076537;28;20047;-63
2023/03/18 11:27:56;;;;;;;16.15;10.90;;;14.00;99.90;;;;;;5077102;28;20092;-63
2023/03/18 11:30:33;;;;;;;17.17;12.40;;;14.10;99.90;;;;;;5071149;28;20044;-67
2023/03/18 11:33:14;;;;;;;17.35;12.38;;;14.40;99.90;;;;;;5091419;28;20040;-64
2023/03/18 11:35:56;;;;;;;16.50;11.57;;;14.70;99.90;;;;;;5069644;28;20043;-64
2023/03/18 11:38:27;;;;;;;15.55;11.70;;;15.00;99.90;;;;;;5088778;28;20039;-64
2023/03/18 11:41:11;;;;;;;17.25;12.18;;;15.10;99.90;;;;;;5065557;28;20063;-63
2023/03/18 11:43:37;;;;;;;14.98;11.32;;;15.30;99.90;;;;;;5085390;28;20509;-62
2023/03/18 11:46:06;;;;;;;16.10;10.80;;;15.60;99.90;;;;;;5075412;28;20127;-65
2023/03/18 11:48:38;;;;;;;17.27;11.27;;;15.70;99.90;;;;;;5071722;28;20089;-63
2023/03/18 11:51:37;;;;;;;13.77;11.02;;;15.90;99.90;;;;;;5090484;28;20033;-64
2023/03/18 11:54:21;;;;;;;15.02;11.32;;;16.10;99.90;;;;;;5088692;28;20043;-61
2023/03/18 11:56:51;;;;;;;15.55;10.90;;;16.20;99.90;;;;;;5065425;28;20096;-61
2023/03/18 11:59:29;;;;;;;16.67;11.82;;;16.40;99.90;;;;;;5087472;28;20042;-63
2023/03/18 12:02:24;;;;;;;15.65;11.52;;;16.50;99.90;;;;;;5087383;28;20118;-63
2023/03/18 12:05:09;;;;;;;16.20;11.95;;;16.40;99.90;;;;;;5070409;28;20032;-64
2023/03/18 12:07:53;;;;;;;15.15;11.77;;;16.40;99.90;;;;;;5091185;28;20486;-64
2023/03/18 12:10:28;;;;;;;15.60;12.32;;;16.30;99.90;;;;;;5087031;28;20047;-63
2023/03/18 12:13:10;;;;;;;14.25;11.30;;;16.20;99.90;;;;;;5067465;28;20039;-64
2023/03/18 12:15:46;;;;;;;13.25;10.07;;;16.30;99.90;;;;;;5064021;28;20490;-63
2023/03/18 12:18:43;;;;;;;17.42;10.70;;;16.30;99.90;;;;;;5083949;28;20043;-64
2023/03/18 12:21:27;;;;;;;13.23;10.38;;;16.40;99.90;;;;;;5072347;28;20085;-64
2023/03/18 12:23:58;;;;;;;13.25;11.05;;;16.50;99.90;;;;;;5070350;28;20111;-63
2023/03/18 12:26:44;;;;;;;16.58;10.82;;;16.50;99.90;;;;;;5068304;28;20036;-64
2023/03/18 12:29:35;;;;;;;14.65;10.23;;;16.50;99.90;;;;;;5088725;28;20094;-63
2023/03/18 12:32:25;;;;;;;14.23;10.70;;;16.40;99.90;;;;;;5085354;28;20068;-64
2023/03/18 12:35:24;;;;;;;14.00;11.13;;;16.20;99.90;;;;;;5089659;28;20074;-63
2023/03/18 12:38:18;;;;;;;14.00;10.63;;;16.00;99.90;;;;;;5069904;28;20397;-63
2023/03/18 12:40:46;;;;;;;15.93;10.73;;;15.90;99.90;;;;;;5068918;28;20498;-63